Bassano, Canada
Current Conditions -  °F | °C
As of 9:00 AM on Friday 19 Dec 2014 (Local Time) from CYYC Reporting Station
Broken Clouds Broken Clouds  
Wind Chill: 21°   Ceiling: 12000
Heat Index: 27°   Visibility: 40mi
Dew Point: 19°   Wind: 5mph
Humidity: 74%   Direction: 180°S
Pressure: 29.66"   Gusts: NA
Location:  50.78°N, 112.47°W
Report Text: CYYC 191600Z 18004KT 40SM FEW090 BKN120 M03/M07 A2966 RMK AC2AC5 SLP091
Loading
Personal Weather Stations






























Interactive Weather Map New forecast layout! Learn more

10-Day Weather Forecast

Advertisements
Track Severe Weather on mobile